createdAt,value
2022-08-02T00:04:38.656Z,1.00
2022-08-02T00:09:46.465Z,1.30
2022-08-02T00:14:54.273Z,1.10
2022-08-02T00:20:02.439Z,1.20
2022-08-02T00:25:10.843Z,0.87
2022-08-02T00:30:18.640Z,0.80
2022-08-02T00:35:26.532Z,0.37
2022-08-02T00:40:34.311Z,1.93
2022-08-02T00:46:02.297Z,1.87
2022-08-02T00:50:52.106Z,0.57
2022-08-02T00:56:00.050Z,0.83
2022-08-02T01:01:07.900Z,0.83
2022-08-02T01:06:15.687Z,1.90
2022-08-02T01:11:23.524Z,1.37
2022-08-02T01:16:34.897Z,1.77
2022-08-02T01:27:07.107Z,1.25
2022-08-02T01:32:17.820Z,0.90
2022-08-02T01:37:28.587Z,1.50
2022-08-02T01:42:37.154Z,1.90
2022-08-02T01:47:45.146Z,1.43
2022-08-02T01:52:54.659Z,1.97
2022-08-02T01:58:06.165Z,1.50
2022-08-02T02:03:17.325Z,2.37
2022-08-02T02:08:28.385Z,1.13
2022-08-02T02:13:36.276Z,2.67
2022-08-02T02:18:44.716Z,0.83
2022-08-02T02:23:52.601Z,2.43
2022-08-02T02:29:02.884Z,1.80
2022-08-02T02:34:13.057Z,2.47
2022-08-02T02:39:23.940Z,0.87
2022-08-02T02:44:32.315Z,3.27
2022-08-02T02:54:49.393Z,1.98
2022-08-02T02:59:57.348Z,3.43
2022-08-02T03:05:05.606Z,2.00
2022-08-02T03:10:14.420Z,4.20
2022-08-02T03:15:22.290Z,2.03
2022-08-02T03:20:30.226Z,3.80
2022-08-02T03:25:38.353Z,3.90
2022-08-02T03:30:46.195Z,1.73
2022-08-02T03:35:55.515Z,4.93
2022-08-02T03:41:04.225Z,2.60
2022-08-02T03:46:12.197Z,2.93
2022-08-02T03:51:20.928Z,3.97
2022-08-02T03:56:29.479Z,2.77
2022-08-02T04:01:37.320Z,2.43
2022-08-02T04:06:45.202Z,4.77
2022-08-02T04:11:53.050Z,4.47
2022-08-02T04:17:03.341Z,3.97
2022-08-02T04:22:14.739Z,4.37
2022-08-02T04:27:50.949Z,4.27
2022-08-02T04:32:32.969Z,6.00
2022-08-02T04:38:05.487Z,6.63
2022-08-02T04:42:50.819Z,4.03
2022-08-02T04:48:06.517Z,7.20
2022-08-02T04:53:08.524Z,3.17
2022-08-02T04:58:39.547Z,2.93
2022-08-02T05:03:25.975Z,3.37
2022-08-02T05:08:34.193Z,5.17
2022-08-02T05:13:58.700Z,4.83
2022-08-02T05:18:53.229Z,6.67
2022-08-02T05:24:01.294Z,3.30
2022-08-02T05:29:11.516Z,1.87
2022-08-02T05:34:19.433Z,2.43
2022-08-02T05:39:27.434Z,1.90
2022-08-02T05:44:38.877Z,5.17
2022-08-02T05:49:46.753Z,3.17
2022-08-02T05:54:59.247Z,1.27
2022-08-02T06:00:10.487Z,3.13
2022-08-02T06:05:20.519Z,4.37
2022-08-02T06:10:30.378Z,3.20
2022-08-02T06:15:52.717Z,4.53
2022-08-02T06:20:50.865Z,3.23
2022-08-02T06:25:59.384Z,6.40
2022-08-02T06:31:08.573Z,5.17
2022-08-02T06:36:19.954Z,2.60
2022-08-02T06:41:27.841Z,3.07
2022-08-02T06:47:08.312Z,2.63
2022-08-02T06:51:45.449Z,1.60
2022-08-02T06:56:53.404Z,2.30
2022-08-02T07:07:36.375Z,2.43
2022-08-02T07:12:44.345Z,4.57
2022-08-02T07:17:52.152Z,2.57
2022-08-02T07:22:59.994Z,2.27
2022-08-02T07:28:11.940Z,3.20
2022-08-02T07:33:38.754Z,3.30
2022-08-02T07:38:27.332Z,1.47
2022-08-02T07:43:35.297Z,1.30
2022-08-02T07:48:43.167Z,1.63
2022-08-02T07:54:02.066Z,1.17
2022-08-02T07:59:00.530Z,1.67
2022-08-02T08:04:08.473Z,1.80
2022-08-02T08:09:16.293Z,1.47
2022-08-02T08:14:24.127Z,1.07
2022-08-02T08:19:50.177Z,1.50
2022-08-02T08:24:41.731Z,1.30
2022-08-02T08:29:49.829Z,1.57
2022-08-02T08:34:57.698Z,1.10
2022-08-02T08:40:07.666Z,0.73
2022-08-02T08:45:15.624Z,1.63
2022-08-02T08:50:26.096Z,0.90
2022-08-02T08:55:35.068Z,0.80
2022-08-02T09:00:43.076Z,0.90
2022-08-02T09:05:51.102Z,0.40
2022-08-02T09:10:59.188Z,0.60
2022-08-02T09:16:12.183Z,0.70
2022-08-02T09:21:17.697Z,0.60
2022-08-02T09:26:26.888Z,0.70
2022-08-02T09:31:34.913Z,0.80
2022-08-02T09:36:44.160Z,0.47
2022-08-02T09:41:52.725Z,0.73
2022-08-02T09:47:00.578Z,0.40
2022-08-02T09:52:08.516Z,0.50
2022-08-02T09:57:16.390Z,0.10
2022-08-02T10:02:24.423Z,0.60
2022-08-02T10:07:32.784Z,0.50
2022-08-02T10:12:40.669Z,0.37
2022-08-02T10:17:48.627Z,0.10
2022-08-02T10:22:56.449Z,0.50
2022-08-02T10:28:05.954Z,0.40
2022-08-02T10:33:13.881Z,0.10
2022-08-02T10:38:21.813Z,0.10
2022-08-02T10:43:33.085Z,0.20
2022-08-02T10:48:44.112Z,0.20
2022-08-02T10:53:56.507Z,0.37
2022-08-02T10:59:07.557Z,0.80
2022-08-02T11:04:15.423Z,0.30
2022-08-02T11:09:31.853Z,0.70
2022-08-02T11:14:38.596Z,0.50
2022-08-02T11:19:49.588Z,0.90
2022-08-02T11:24:57.725Z,0.10
2022-08-02T11:30:07.310Z,0.63
2022-08-02T11:35:15.368Z,0.40
2022-08-02T11:40:23.267Z,0.20
2022-08-02T11:45:32.881Z,0.60
2022-08-02T11:50:42.448Z,0.60
2022-08-02T11:55:50.309Z,0.03
2022-08-02T12:00:58.190Z,0.50
2022-08-02T12:06:07.111Z,0.50
2022-08-02T12:11:19.391Z,0.57
2022-08-02T12:16:30.486Z,0.40
2022-08-02T12:21:38.431Z,0.30
2022-08-02T12:26:48.268Z,0.47
2022-08-02T12:31:58.149Z,0.40
2022-08-02T12:37:07.688Z,0.07
2022-08-02T12:42:16.623Z,0.00
2022-08-02T12:47:24.771Z,0.20
2022-08-02T12:52:34.296Z,0.70
2022-08-02T12:57:45.289Z,0.30
2022-08-02T13:02:53.215Z,0.00
2022-08-02T13:08:01.101Z,0.60
2022-08-02T13:13:09.056Z,0.30
2022-08-02T13:18:18.679Z,0.20
2022-08-02T13:23:26.498Z,0.00
2022-08-02T13:28:36.034Z,0.70
2022-08-02T13:33:43.875Z,0.50
2022-08-02T13:38:51.673Z,0.60
2022-08-02T13:44:08.920Z,0.47
2022-08-02T13:49:09.218Z,0.43
2022-08-02T13:54:22.976Z,0.20
2022-08-02T13:59:58.528Z,0.13
2022-08-02T14:04:40.501Z,0.23
2022-08-02T14:09:48.423Z,0.47
2022-08-02T14:14:56.409Z,0.70
2022-08-02T14:20:04.580Z,0.13
2022-08-02T14:25:12.629Z,0.20
2022-08-02T14:30:21.852Z,0.00
2022-08-02T14:35:29.695Z,0.67
2022-08-02T14:40:37.922Z,0.50
2022-08-02T14:45:47.049Z,0.40
2022-08-02T14:50:55.167Z,0.60
2022-08-02T14:56:03.103Z,0.87
2022-08-02T15:01:10.974Z,0.30
2022-08-02T15:06:20.549Z,0.20
2022-08-02T15:11:28.555Z,0.00
2022-08-02T15:16:55.387Z,0.00
2022-08-02T15:21:54.559Z,0.00
2022-08-02T15:26:57.359Z,0.30
2022-08-02T15:32:05.364Z,0.00
2022-08-02T15:37:13.264Z,0.60
2022-08-02T15:42:21.563Z,0.57
2022-08-02T15:47:31.152Z,0.77
2022-08-02T15:52:39.017Z,0.90
2022-08-02T15:57:46.862Z,0.00
2022-08-02T16:02:54.769Z,0.20
2022-08-02T16:08:02.761Z,0.17
2022-08-02T16:13:12.556Z,0.30
2022-08-02T16:18:20.549Z,0.10
2022-08-02T16:23:58.862Z,1.30
2022-08-02T16:28:38.460Z,0.37
2022-08-02T16:33:46.284Z,0.00
2022-08-02T16:38:54.837Z,0.00
2022-08-02T16:44:02.682Z,0.77
2022-08-02T16:49:12.985Z,0.87
2022-08-02T16:54:21.964Z,0.10
2022-08-02T16:59:41.417Z,0.20
2022-08-02T17:04:43.500Z,0.30
2022-08-02T17:10:04.072Z,0.27
2022-08-02T17:15:46.981Z,0.00
2022-08-02T17:20:12.320Z,0.00
2022-08-02T17:25:20.335Z,0.10
2022-08-02T17:30:28.206Z,0.00
2022-08-02T17:35:43.190Z,0.00
2022-08-02T17:40:46.208Z,0.00
2022-08-02T17:51:09.061Z,0.00
2022-08-02T17:56:18.791Z,0.00
2022-08-02T18:01:26.657Z,0.00
2022-08-02T18:06:34.605Z,0.00
2022-08-02T18:11:52.263Z,0.00
2022-08-02T18:16:53.379Z,0.00
2022-08-02T18:22:07.551Z,0.00
2022-08-02T18:27:17.054Z,0.00
2022-08-02T18:33:55.550Z,0.00
2022-08-02T18:37:40.485Z,0.00
2022-08-02T18:42:45.057Z,0.00
2022-08-02T18:47:57.126Z,0.00
2022-08-02T18:53:07.065Z,0.00
2022-08-02T18:58:20.263Z,0.00
2022-08-02T19:03:27.135Z,0.00
2022-08-02T19:08:35.537Z,0.00
2022-08-02T19:13:44.130Z,0.00
2022-08-02T19:18:53.127Z,0.00
2022-08-02T19:24:01.126Z,1.10
2022-08-02T19:29:11.713Z,0.00
2022-08-02T19:34:20.030Z,0.00
2022-08-02T19:39:31.326Z,0.20
2022-08-02T19:44:45.152Z,0.00
2022-08-02T19:49:52.056Z,0.00
2022-08-02T19:55:58.487Z,0.00
2022-08-02T20:00:11.588Z,0.23
2022-08-02T20:05:26.562Z,0.00
2022-08-02T20:10:33.790Z,0.00
2022-08-02T20:15:55.884Z,0.00
2022-08-02T20:20:56.452Z,0.00
2022-08-02T20:26:06.441Z,0.00
2022-08-02T20:31:15.976Z,0.00
2022-08-02T20:36:24.613Z,0.00
2022-08-02T20:46:44.959Z,0.00
2022-08-02T20:51:53.891Z,0.00
2022-08-02T20:57:03.167Z,0.00
2022-08-02T21:02:13.004Z,0.00
2022-08-02T21:07:20.800Z,0.00
2022-08-02T21:12:30.490Z,0.33
2022-08-02T21:17:43.753Z,0.00
2022-08-02T21:22:48.396Z,0.00
2022-08-02T21:27:57.589Z,0.00
2022-08-02T21:33:06.173Z,0.00
2022-08-02T21:38:35.804Z,0.47
2022-08-02T21:43:35.397Z,0.00
2022-08-02T21:48:34.945Z,0.00
2022-08-02T21:54:17.459Z,0.00
2022-08-02T21:58:54.656Z,0.00
2022-08-02T22:04:02.517Z,0.00
2022-08-02T22:09:17.271Z,0.00
2022-08-02T22:14:23.543Z,0.00
2022-08-02T22:19:30.506Z,0.10
2022-08-02T22:24:40.059Z,0.00
2022-08-02T22:29:47.922Z,0.00
2022-08-02T22:34:55.912Z,0.00
2022-08-02T22:40:08.489Z,0.00
2022-08-02T22:45:13.272Z,0.00
2022-08-02T22:50:21.187Z,0.00
2022-08-02T22:55:32.113Z,0.23
2022-08-02T22:58:49.680Z,0.00
2022-08-02T22:58:56.095Z,0.10
2022-08-02T23:00:40.163Z,0.00
2022-08-02T23:05:48.092Z,0.00
2022-08-02T23:10:55.918Z,0.00
2022-08-02T23:16:05.310Z,0.00
2022-08-02T23:21:13.340Z,0.60
2022-08-02T23:26:23.388Z,0.00
2022-08-02T23:31:38.002Z,0.00
2022-08-02T23:36:44.203Z,0.50
2022-08-02T23:41:55.267Z,0.20
2022-08-02T23:47:01.549Z,0.00
2022-08-02T23:52:09.519Z,0.00
2022-08-02T23:57:20.087Z,0.00
